Terminal Aerodrome Forecast
Issued by NWS

Home | Current Version | Previous Version | Text Only | Print | Product List | Glossary Off
Versions: 1 2 3 4 5 6 7 8 9 10 11 12 13 14 15

000
FTUS45 KGGW 021123
TAFSDY
TAF
KSDY 021123Z 0212/0312 VRB05KT 6SM BR OVC040
     FM021300 VRB05KT 6SM BR OVC020
     FM021700 21005KT P6SM OVC020
     FM030000 22005KT P6SM SCT030
     FM030600 19006KT P6SM FEW025=

USA.gov is the U.S. government's official web portal to all federal, state and local government web resources and services.